sensor_id;sensor_type;location;lat;lon;timestamp;P1;durP1;ratioP1;P2;durP2;ratioP2
52946;SDS011;68773;40.400;17.260;2023-04-24T00:00:11;11.18;;;6.70;;
52946;SDS011;68773;40.400;17.260;2023-04-24T00:02:40;8.77;;;5.50;;
52946;SDS011;68773;40.400;17.260;2023-04-24T00:05:16;14.18;;;5.57;;
52946;SDS011;68773;40.400;17.260;2023-04-24T00:07:43;7.47;;;5.40;;
52946;SDS011;68773;40.400;17.260;2023-04-24T00:10:10;14.45;;;5.55;;
52946;SDS011;68773;40.400;17.260;2023-04-24T00:12:36;11.10;;;6.15;;
52946;SDS011;68773;40.400;17.260;2023-04-24T00:15:02;9.95;;;5.78;;
52946;SDS011;68773;40.400;17.260;2023-04-24T00:17:28;8.75;;;5.00;;
52946;SDS011;68773;40.400;17.260;2023-04-24T00:19:55;9.23;;;5.40;;
52946;SDS011;68773;40.400;17.260;2023-04-24T00:22:24;8.95;;;5.38;;
52946;SDS011;68773;40.400;17.260;2023-04-24T00:24:50;10.20;;;4.70;;
52946;SDS011;68773;40.400;17.260;2023-04-24T00:27:16;10.80;;;5.10;;
52946;SDS011;68773;40.400;17.260;2023-04-24T00:29:42;10.25;;;5.25;;
52946;SDS011;68773;40.400;17.260;2023-04-24T00:32:08;10.18;;;5.93;;
52946;SDS011;68773;40.400;17.260;2023-04-24T00:34:33;9.00;;;4.80;;
52946;SDS011;68773;40.400;17.260;2023-04-24T00:36:59;12.75;;;5.82;;
52946;SDS011;68773;40.400;17.260;2023-04-24T00:39:25;9.93;;;5.40;;
52946;SDS011;68773;40.400;17.260;2023-04-24T00:41:51;9.98;;;5.65;;
52946;SDS011;68773;40.400;17.260;2023-04-24T00:44:17;12.13;;;5.47;;
52946;SDS011;68773;40.400;17.260;2023-04-24T00:46:43;9.18;;;5.57;;
52946;SDS011;68773;40.400;17.260;2023-04-24T00:49:09;9.80;;;5.50;;
52946;SDS011;68773;40.400;17.260;2023-04-24T00:51:35;9.60;;;6.07;;
52946;SDS011;68773;40.400;17.260;2023-04-24T00:54:01;8.52;;;5.40;;
52946;SDS011;68773;40.400;17.260;2023-04-24T00:56:27;9.52;;;5.85;;
52946;SDS011;68773;40.400;17.260;2023-04-24T00:58:53;9.52;;;5.50;;
52946;SDS011;68773;40.400;17.260;2023-04-24T01:01:20;11.80;;;6.00;;
52946;SDS011;68773;40.400;17.260;2023-04-24T01:03:46;15.13;;;6.38;;
52946;SDS011;68773;40.400;17.260;2023-04-24T01:06:14;10.60;;;5.97;;
52946;SDS011;68773;40.400;17.260;2023-04-24T01:08:40;11.23;;;6.30;;
52946;SDS011;68773;40.400;17.260;2023-04-24T01:11:07;12.10;;;6.55;;
52946;SDS011;68773;40.400;17.260;2023-04-24T01:13:33;15.55;;;7.55;;
52946;SDS011;68773;40.400;17.260;2023-04-24T01:15:59;9.88;;;6.43;;
52946;SDS011;68773;40.400;17.260;2023-04-24T01:18:26;11.95;;;6.82;;
52946;SDS011;68773;40.400;17.260;2023-04-24T01:20:53;11.15;;;7.40;;
52946;SDS011;68773;40.400;17.260;2023-04-24T01:23:21;13.38;;;6.65;;
52946;SDS011;68773;40.400;17.260;2023-04-24T01:25:48;11.45;;;6.90;;
52946;SDS011;68773;40.400;17.260;2023-04-24T01:28:15;11.98;;;6.65;;
52946;SDS011;68773;40.400;17.260;2023-04-24T01:30:41;13.52;;;7.20;;
52946;SDS011;68773;40.400;17.260;2023-04-24T01:33:07;14.35;;;6.72;;
52946;SDS011;68773;40.400;17.260;2023-04-24T01:35:33;9.75;;;6.35;;
52946;SDS011;68773;40.400;17.260;2023-04-24T01:38:01;9.68;;;6.13;;
52946;SDS011;68773;40.400;17.260;2023-04-24T01:40:26;9.38;;;5.85;;
52946;SDS011;68773;40.400;17.260;2023-04-24T01:42:52;9.90;;;5.90;;
52946;SDS011;68773;40.400;17.260;2023-04-24T01:45:18;10.20;;;6.93;;
52946;SDS011;68773;40.400;17.260;2023-04-24T01:47:44;12.13;;;7.32;;
52946;SDS011;68773;40.400;17.260;2023-04-24T01:50:11;13.50;;;6.53;;
52946;SDS011;68773;40.400;17.260;2023-04-24T01:52:37;13.50;;;6.95;;
52946;SDS011;68773;40.400;17.260;2023-04-24T01:55:03;11.55;;;6.78;;
52946;SDS011;68773;40.400;17.260;2023-04-24T01:57:33;11.82;;;7.03;;
52946;SDS011;68773;40.400;17.260;2023-04-24T02:00:00;11.70;;;6.70;;
52946;SDS011;68773;40.400;17.260;2023-04-24T02:02:25;11.75;;;6.60;;
52946;SDS011;68773;40.400;17.260;2023-04-24T02:04:54;10.55;;;6.80;;
52946;SDS011;68773;40.400;17.260;2023-04-24T02:07:20;12.70;;;7.47;;
52946;SDS011;68773;40.400;17.260;2023-04-24T02:09:47;17.92;;;7.70;;
52946;SDS011;68773;40.400;17.260;2023-04-24T02:12:12;14.30;;;8.18;;
52946;SDS011;68773;40.400;17.260;2023-04-24T02:14:39;10.73;;;6.88;;
52946;SDS011;68773;40.400;17.260;2023-04-24T02:17:04;14.48;;;8.02;;
52946;SDS011;68773;40.400;17.260;2023-04-24T02:19:31;14.88;;;7.90;;
52946;SDS011;68773;40.400;17.260;2023-04-24T02:21:57;14.98;;;7.53;;
52946;SDS011;68773;40.400;17.260;2023-04-24T02:24:22;9.60;;;7.20;;
52946;SDS011;68773;40.400;17.260;2023-04-24T02:26:48;11.88;;;7.43;;
52946;SDS011;68773;40.400;17.260;2023-04-24T02:29:14;10.10;;;6.68;;
52946;SDS011;68773;40.400;17.260;2023-04-24T02:31:40;13.88;;;6.70;;
52946;SDS011;68773;40.400;17.260;2023-04-24T02:34:06;12.32;;;6.90;;
52946;SDS011;68773;40.400;17.260;2023-04-24T02:36:31;11.77;;;6.30;;
52946;SDS011;68773;40.400;17.260;2023-04-24T02:38:57;11.27;;;6.35;;
52946;SDS011;68773;40.400;17.260;2023-04-24T02:41:23;10.02;;;6.38;;
52946;SDS011;68773;40.400;17.260;2023-04-24T02:43:49;11.45;;;6.75;;
52946;SDS011;68773;40.400;17.260;2023-04-24T02:46:15;13.60;;;6.65;;
52946;SDS011;68773;40.400;17.260;2023-04-24T02:48:40;8.45;;;6.18;;
52946;SDS011;68773;40.400;17.260;2023-04-24T02:51:06;10.90;;;6.00;;
52946;SDS011;68773;40.400;17.260;2023-04-24T02:53:32;11.77;;;6.55;;
52946;SDS011;68773;40.400;17.260;2023-04-24T02:55:58;10.40;;;6.65;;
52946;SDS011;68773;40.400;17.260;2023-04-24T02:58:24;11.02;;;5.75;;
52946;SDS011;68773;40.400;17.260;2023-04-24T03:00:53;12.30;;;6.55;;
52946;SDS011;68773;40.400;17.260;2023-04-24T03:03:20;12.35;;;5.75;;
52946;SDS011;68773;40.400;17.260;2023-04-24T03:05:46;9.70;;;6.25;;
52946;SDS011;68773;40.400;17.260;2023-04-24T03:08:12;12.68;;;5.72;;
52946;SDS011;68773;40.400;17.260;2023-04-24T03:10:39;11.85;;;6.03;;
52946;SDS011;68773;40.400;17.260;2023-04-24T03:13:05;12.90;;;6.38;;
52946;SDS011;68773;40.400;17.260;2023-04-24T03:15:31;7.90;;;4.97;;
52946;SDS011;68773;40.400;17.260;2023-04-24T03:17:57;11.13;;;5.53;;
52946;SDS011;68773;40.400;17.260;2023-04-24T03:20:22;9.43;;;5.47;;
52946;SDS011;68773;40.400;17.260;2023-04-24T03:22:48;12.00;;;5.28;;
52946;SDS011;68773;40.400;17.260;2023-04-24T03:25:14;9.60;;;5.53;;
52946;SDS011;68773;40.400;17.260;2023-04-24T03:27:40;15.70;;;5.28;;
52946;SDS011;68773;40.400;17.260;2023-04-24T03:30:06;9.93;;;5.63;;
52946;SDS011;68773;40.400;17.260;2023-04-24T03:32:33;9.57;;;4.97;;
52946;SDS011;68773;40.400;17.260;2023-04-24T03:34:58;9.45;;;5.22;;
52946;SDS011;68773;40.400;17.260;2023-04-24T03:37:24;9.02;;;4.93;;
52946;SDS011;68773;40.400;17.260;2023-04-24T03:39:51;9.98;;;5.20;;
52946;SDS011;68773;40.400;17.260;2023-04-24T03:42:17;10.40;;;5.35;;
52946;SDS011;68773;40.400;17.260;2023-04-24T03:44:42;10.05;;;5.65;;
52946;SDS011;68773;40.400;17.260;2023-04-24T03:47:08;12.93;;;6.78;;
52946;SDS011;68773;40.400;17.260;2023-04-24T03:49:34;10.45;;;5.65;;
52946;SDS011;68773;40.400;17.260;2023-04-24T03:52:00;10.50;;;5.72;;
52946;SDS011;68773;40.400;17.260;2023-04-24T03:54:26;11.40;;;6.20;;
52946;SDS011;68773;40.400;17.260;2023-04-24T03:56:51;12.88;;;6.20;;
52946;SDS011;68773;40.400;17.260;2023-04-24T03:59:17;13.45;;;7.00;;
52946;SDS011;68773;40.400;17.260;2023-04-24T04:01:43;13.25;;;6.63;;
52946;SDS011;68773;40.400;17.260;2023-04-24T04:04:09;17.15;;;9.25;;
52946;SDS011;68773;40.400;17.260;2023-04-24T04:06:35;16.33;;;8.82;;
52946;SDS011;68773;40.400;17.260;2023-04-24T04:09:01;20.80;;;9.50;;
52946;SDS011;68773;40.400;17.260;2023-04-24T04:11:28;17.88;;;9.70;;
52946;SDS011;68773;40.400;17.260;2023-04-24T04:13:54;20.33;;;9.68;;
52946;SDS011;68773;40.400;17.260;2023-04-24T04:16:20;17.00;;;9.02;;
52946;SDS011;68773;40.400;17.260;2023-04-24T04:18:46;16.75;;;9.35;;
52946;SDS011;68773;40.400;17.260;2023-04-24T04:21:12;18.00;;;9.63;;
52946;SDS011;68773;40.400;17.260;2023-04-24T04:23:37;18.42;;;9.13;;
52946;SDS011;68773;40.400;17.260;2023-04-24T04:26:04;14.35;;;8.63;;
52946;SDS011;68773;40.400;17.260;2023-04-24T04:28:30;17.77;;;8.77;;
52946;SDS011;68773;40.400;17.260;2023-04-24T04:30:57;14.73;;;8.10;;
52946;SDS011;68773;40.400;17.260;2023-04-24T04:33:23;14.02;;;8.15;;
52946;SDS011;68773;40.400;17.260;2023-04-24T04:35:50;12.07;;;7.07;;
52946;SDS011;68773;40.400;17.260;2023-04-24T04:38:17;22.00;;;8.80;;
52946;SDS011;68773;40.400;17.260;2023-04-24T04:40:44;14.57;;;8.15;;
52946;SDS011;68773;40.400;17.260;2023-04-24T04:43:10;17.60;;;7.78;;
52946;SDS011;68773;40.400;17.260;2023-04-24T04:45:38;15.98;;;7.57;;
52946;SDS011;68773;40.400;17.260;2023-04-24T04:48:06;11.75;;;7.13;;
52946;SDS011;68773;40.400;17.260;2023-04-24T04:50:37;13.80;;;6.95;;
52946;SDS011;68773;40.400;17.260;2023-04-24T04:53:03;10.32;;;7.00;;
52946;SDS011;68773;40.400;17.260;2023-04-24T04:55:30;18.38;;;7.55;;
52946;SDS011;68773;40.400;17.260;2023-04-24T04:57:56;15.48;;;8.43;;
52946;SDS011;68773;40.400;17.260;2023-04-24T05:00:22;17.63;;;8.00;;
52946;SDS011;68773;40.400;17.260;2023-04-24T05:02:51;19.42;;;9.05;;
52946;SDS011;68773;40.400;17.260;2023-04-24T05:05:17;18.20;;;8.13;;
52946;SDS011;68773;40.400;17.260;2023-04-24T05:07:43;18.33;;;8.27;;
52946;SDS011;68773;40.400;17.260;2023-04-24T05:10:09;23.80;;;9.25;;
52946;SDS011;68773;40.400;17.260;2023-04-24T05:12:35;14.25;;;8.13;;
52946;SDS011;68773;40.400;17.260;2023-04-24T05:15:01;16.70;;;7.13;;
52946;SDS011;68773;40.400;17.260;2023-04-24T05:17:27;14.27;;;6.60;;
52946;SDS011;68773;40.400;17.260;2023-04-24T05:19:53;18.40;;;8.98;;
52946;SDS011;68773;40.400;17.260;2023-04-24T05:22:19;20.17;;;9.73;;
52946;SDS011;68773;40.400;17.260;2023-04-24T05:24:46;17.85;;;8.43;;
52946;SDS011;68773;40.400;17.260;2023-04-24T05:27:12;16.05;;;7.25;;
52946;SDS011;68773;40.400;17.260;2023-04-24T05:29:38;10.65;;;6.30;;
52946;SDS011;68773;40.400;17.260;2023-04-24T05:32:05;13.63;;;6.25;;
52946;SDS011;68773;40.400;17.260;2023-04-24T05:34:31;12.57;;;6.22;;
52946;SDS011;68773;40.400;17.260;2023-04-24T05:36:57;12.85;;;7.40;;
52946;SDS011;68773;40.400;17.260;2023-04-24T05:39:22;12.30;;;6.40;;
52946;SDS011;68773;40.400;17.260;2023-04-24T05:41:50;11.15;;;6.25;;
52946;SDS011;68773;40.400;17.260;2023-04-24T05:44:16;12.55;;;6.50;;
52946;SDS011;68773;40.400;17.260;2023-04-24T05:46:41;12.45;;;6.65;;
52946;SDS011;68773;40.400;17.260;2023-04-24T05:49:07;14.35;;;6.50;;
52946;SDS011;68773;40.400;17.260;2023-04-24T05:51:33;12.70;;;7.78;;
52946;SDS011;68773;40.400;17.260;2023-04-24T05:53:59;14.98;;;7.80;;
52946;SDS011;68773;40.400;17.260;2023-04-24T05:56:25;12.60;;;6.68;;
52946;SDS011;68773;40.400;17.260;2023-04-24T05:58:51;15.15;;;6.47;;
52946;SDS011;68773;40.400;17.260;2023-04-24T06:01:16;12.27;;;6.38;;
52946;SDS011;68773;40.400;17.260;2023-04-24T06:03:43;11.80;;;6.70;;
52946;SDS011;68773;40.400;17.260;2023-04-24T06:06:08;11.95;;;6.45;;
52946;SDS011;68773;40.400;17.260;2023-04-24T06:08:34;14.77;;;6.78;;
52946;SDS011;68773;40.400;17.260;2023-04-24T06:11:00;13.88;;;6.00;;
52946;SDS011;68773;40.400;17.260;2023-04-24T06:13:26;8.63;;;5.57;;
52946;SDS011;68773;40.400;17.260;2023-04-24T06:15:52;10.60;;;6.20;;
52946;SDS011;68773;40.400;17.260;2023-04-24T06:18:18;9.60;;;5.57;;
52946;SDS011;68773;40.400;17.260;2023-04-24T06:20:45;10.60;;;5.43;;
52946;SDS011;68773;40.400;17.260;2023-04-24T06:23:11;9.88;;;5.03;;
52946;SDS011;68773;40.400;17.260;2023-04-24T06:25:37;11.00;;;6.10;;
52946;SDS011;68773;40.400;17.260;2023-04-24T06:28:03;11.75;;;6.30;;
52946;SDS011;68773;40.400;17.260;2023-04-24T06:30:29;10.18;;;6.13;;
52946;SDS011;68773;40.400;17.260;2023-04-24T06:32:55;8.60;;;5.57;;
52946;SDS011;68773;40.400;17.260;2023-04-24T06:35:21;10.55;;;5.68;;
52946;SDS011;68773;40.400;17.260;2023-04-24T06:37:47;15.20;;;6.93;;
52946;SDS011;68773;40.400;17.260;2023-04-24T06:40:13;6.25;;;2.95;;
52946;SDS011;68773;40.400;17.260;2023-04-24T06:42:39;5.85;;;2.97;;
52946;SDS011;68773;40.400;17.260;2023-04-24T06:45:04;4.93;;;2.80;;
52946;SDS011;68773;40.400;17.260;2023-04-24T06:47:31;7.03;;;3.40;;
52946;SDS011;68773;40.400;17.260;2023-04-24T06:49:56;10.82;;;4.07;;
52946;SDS011;68773;40.400;17.260;2023-04-24T06:52:22;10.15;;;4.20;;
52946;SDS011;68773;40.400;17.260;2023-04-24T06:54:48;9.68;;;4.00;;
52946;SDS011;68773;40.400;17.260;2023-04-24T06:57:14;11.07;;;4.38;;
52946;SDS011;68773;40.400;17.260;2023-04-24T06:59:41;8.13;;;4.30;;
52946;SDS011;68773;40.400;17.260;2023-04-24T07:02:07;9.43;;;4.85;;
52946;SDS011;68773;40.400;17.260;2023-04-24T07:04:32;10.23;;;5.47;;
52946;SDS011;68773;40.400;17.260;2023-04-24T07:06:58;5.90;;;4.40;;
52946;SDS011;68773;40.400;17.260;2023-04-24T07:09:24;9.95;;;4.90;;
52946;SDS011;68773;40.400;17.260;2023-04-24T07:11:51;10.80;;;5.30;;
52946;SDS011;68773;40.400;17.260;2023-04-24T07:14:18;11.43;;;5.03;;
52946;SDS011;68773;40.400;17.260;2023-04-24T07:16:44;9.10;;;5.45;;
52946;SDS011;68773;40.400;17.260;2023-04-24T07:19:10;11.43;;;4.82;;
52946;SDS011;68773;40.400;17.260;2023-04-24T07:21:37;9.60;;;5.60;;
52946;SDS011;68773;40.400;17.260;2023-04-24T07:24:02;7.72;;;5.47;;
52946;SDS011;68773;40.400;17.260;2023-04-24T07:26:29;10.52;;;5.43;;
52946;SDS011;68773;40.400;17.260;2023-04-24T07:28:55;12.38;;;5.78;;
52946;SDS011;68773;40.400;17.260;2023-04-24T07:31:21;11.93;;;5.53;;
52946;SDS011;68773;40.400;17.260;2023-04-24T07:33:47;10.05;;;5.70;;
52946;SDS011;68773;40.400;17.260;2023-04-24T07:36:13;7.80;;;5.60;;
52946;SDS011;68773;40.400;17.260;2023-04-24T07:38:46;10.25;;;5.43;;
52946;SDS011;68773;40.400;17.260;2023-04-24T07:41:13;10.40;;;5.22;;
52946;SDS011;68773;40.400;17.260;2023-04-24T07:43:39;6.75;;;4.85;;
52946;SDS011;68773;40.400;17.260;2023-04-24T07:46:05;10.52;;;4.70;;
52946;SDS011;68773;40.400;17.260;2023-04-24T07:48:31;11.35;;;5.28;;
52946;SDS011;68773;40.400;17.260;2023-04-24T07:50:57;7.00;;;4.50;;
52946;SDS011;68773;40.400;17.260;2023-04-24T07:53:23;6.82;;;4.22;;
52946;SDS011;68773;40.400;17.260;2023-04-24T07:55:48;6.18;;;4.05;;
52946;SDS011;68773;40.400;17.260;2023-04-24T07:58:14;8.57;;;4.25;;
52946;SDS011;68773;40.400;17.260;2023-04-24T08:00:40;8.82;;;4.45;;
52946;SDS011;68773;40.400;17.260;2023-04-24T08:03:06;8.25;;;4.05;;
52946;SDS011;68773;40.400;17.260;2023-04-24T08:05:32;8.23;;;4.40;;
52946;SDS011;68773;40.400;17.260;2023-04-24T08:07:57;8.00;;;4.40;;
52946;SDS011;68773;40.400;17.260;2023-04-24T08:10:24;6.43;;;3.60;;
52946;SDS011;68773;40.400;17.260;2023-04-24T08:12:50;9.77;;;4.22;;
52946;SDS011;68773;40.400;17.260;2023-04-24T08:15:17;7.13;;;4.18;;
52946;SDS011;68773;40.400;17.260;2023-04-24T08:17:43;10.07;;;4.25;;
52946;SDS011;68773;40.400;17.260;2023-04-24T08:20:10;5.82;;;3.83;;
52946;SDS011;68773;40.400;17.260;2023-04-24T08:22:38;9.77;;;4.18;;
52946;SDS011;68773;40.400;17.260;2023-04-24T08:25:05;6.60;;;4.35;;
52946;SDS011;68773;40.400;17.260;2023-04-24T08:27:31;5.55;;;3.47;;
52946;SDS011;68773;40.400;17.260;2023-04-24T08:29:57;6.03;;;3.88;;
52946;SDS011;68773;40.400;17.260;2023-04-24T08:32:24;9.32;;;4.43;;
52946;SDS011;68773;40.400;17.260;2023-04-24T08:34:53;9.48;;;4.03;;
52946;SDS011;68773;40.400;17.260;2023-04-24T08:37:26;9.32;;;3.80;;
52946;SDS011;68773;40.400;17.260;2023-04-24T08:39:52;11.75;;;4.10;;
52946;SDS011;68773;40.400;17.260;2023-04-24T08:42:19;14.23;;;4.07;;
52946;SDS011;68773;40.400;17.260;2023-04-24T08:44:46;7.95;;;4.13;;
52946;SDS011;68773;40.400;17.260;2023-04-24T08:47:13;10.82;;;4.07;;
52946;SDS011;68773;40.400;17.260;2023-04-24T08:49:41;9.98;;;3.95;;
52946;SDS011;68773;40.400;17.260;2023-04-24T08:52:08;10.25;;;4.53;;
52946;SDS011;68773;40.400;17.260;2023-04-24T08:54:34;10.93;;;4.15;;
52946;SDS011;68773;40.400;17.260;2023-04-24T08:57:01;11.57;;;3.55;;
52946;SDS011;68773;40.400;17.260;2023-04-24T08:59:28;9.05;;;3.50;;
52946;SDS011;68773;40.400;17.260;2023-04-24T09:01:55;6.38;;;3.10;;
52946;SDS011;68773;40.400;17.260;2023-04-24T09:04:21;12.38;;;3.60;;
52946;SDS011;68773;40.400;17.260;2023-04-24T09:06:50;11.05;;;3.55;;
52946;SDS011;68773;40.400;17.260;2023-04-24T09:09:20;15.05;;;4.47;;
52946;SDS011;68773;40.400;17.260;2023-04-24T09:11:46;8.88;;;3.88;;
52946;SDS011;68773;40.400;17.260;2023-04-24T09:14:14;11.18;;;5.05;;
52946;SDS011;68773;40.400;17.260;2023-04-24T09:16:40;11.07;;;4.03;;
52946;SDS011;68773;40.400;17.260;2023-04-24T09:19:06;12.38;;;4.10;;
52946;SDS011;68773;40.400;17.260;2023-04-24T09:21:32;8.32;;;4.05;;
52946;SDS011;68773;40.400;17.260;2023-04-24T09:24:00;11.52;;;4.07;;
52946;SDS011;68773;40.400;17.260;2023-04-24T09:26:34;6.20;;;3.83;;
52946;SDS011;68773;40.400;17.260;2023-04-24T09:29:01;11.85;;;4.03;;
52946;SDS011;68773;40.400;17.260;2023-04-24T09:31:29;9.93;;;3.83;;
52946;SDS011;68773;40.400;17.260;2023-04-24T09:33:56;9.23;;;3.92;;
52946;SDS011;68773;40.400;17.260;2023-04-24T09:36:27;12.50;;;4.22;;
52946;SDS011;68773;40.400;17.260;2023-04-24T09:39:02;7.82;;;4.22;;
52946;SDS011;68773;40.400;17.260;2023-04-24T09:41:31;12.53;;;4.00;;
52946;SDS011;68773;40.400;17.260;2023-04-24T09:43:58;11.38;;;4.03;;
52946;SDS011;68773;40.400;17.260;2023-04-24T09:46:54;9.98;;;4.10;;
52946;SDS011;68773;40.400;17.260;2023-04-24T09:49:28;13.25;;;4.35;;
52946;SDS011;68773;40.400;17.260;2023-04-24T09:52:02;8.00;;;3.88;;
52946;SDS011;68773;40.400;17.260;2023-04-24T09:54:29;11.77;;;4.60;;
52946;SDS011;68773;40.400;17.260;2023-04-24T09:56:54;15.63;;;4.55;;
52946;SDS011;68773;40.400;17.260;2023-04-24T09:59:21;7.32;;;3.97;;
52946;SDS011;68773;40.400;17.260;2023-04-24T10:01:47;8.60;;;4.22;;
52946;SDS011;68773;40.400;17.260;2023-04-24T10:04:25;15.43;;;4.00;;
52946;SDS011;68773;40.400;17.260;2023-04-24T10:06:52;11.40;;;4.10;;
52946;SDS011;68773;40.400;17.260;2023-04-24T10:09:21;12.65;;;4.35;;
52946;SDS011;68773;40.400;17.260;2023-04-24T10:11:52;15.75;;;4.07;;
52946;SDS011;68773;40.400;17.260;2023-04-24T10:14:19;15.20;;;4.38;;
52946;SDS011;68773;40.400;17.260;2023-04-24T10:16:49;8.65;;;3.40;;
52946;SDS011;68773;40.400;17.260;2023-04-24T10:19:17;10.85;;;3.60;;
52946;SDS011;68773;40.400;17.260;2023-04-24T10:21:43;8.00;;;3.72;;
52946;SDS011;68773;40.400;17.260;2023-04-24T10:24:14;8.70;;;3.55;;
52946;SDS011;68773;40.400;17.260;2023-04-24T10:26:41;8.65;;;3.40;;
52946;SDS011;68773;40.400;17.260;2023-04-24T10:29:07;6.03;;;2.83;;
52946;SDS011;68773;40.400;17.260;2023-04-24T10:31:37;6.05;;;2.83;;
52946;SDS011;68773;40.400;17.260;2023-04-24T10:34:04;8.68;;;2.97;;
52946;SDS011;68773;40.400;17.260;2023-04-24T10:36:31;14.05;;;4.35;;
52946;SDS011;68773;40.400;17.260;2023-04-24T10:38:59;11.77;;;4.07;;
52946;SDS011;68773;40.400;17.260;2023-04-24T10:41:27;10.95;;;3.50;;
52946;SDS011;68773;40.400;17.260;2023-04-24T10:44:04;11.02;;;3.30;;
52946;SDS011;68773;40.400;17.260;2023-04-24T10:46:30;10.02;;;3.92;;
52946;SDS011;68773;40.400;17.260;2023-04-24T10:48:56;8.80;;;3.05;;
52946;SDS011;68773;40.400;17.260;2023-04-24T10:51:23;8.70;;;3.05;;
52946;SDS011;68773;40.400;17.260;2023-04-24T10:53:51;10.00;;;2.97;;
52946;SDS011;68773;40.400;17.260;2023-04-24T10:56:17;8.70;;;3.20;;
52946;SDS011;68773;40.400;17.260;2023-04-24T10:58:47;5.30;;;2.40;;
52946;SDS011;68773;40.400;17.260;2023-04-24T11:01:27;10.05;;;3.05;;
52946;SDS011;68773;40.400;17.260;2023-04-24T11:04:01;8.80;;;3.03;;
52946;SDS011;68773;40.400;17.260;2023-04-24T11:06:28;6.78;;;2.83;;
52946;SDS011;68773;40.400;17.260;2023-04-24T11:09:06;9.07;;;2.80;;
52946;SDS011;68773;40.400;17.260;2023-04-24T11:11:33;5.20;;;2.95;;
52946;SDS011;68773;40.400;17.260;2023-04-24T11:14:01;6.47;;;3.13;;
52946;SDS011;68773;40.400;17.260;2023-04-24T11:21:44;7.93;;;3.20;;
52946;SDS011;68773;40.400;17.260;2023-04-24T11:24:29;6.85;;;2.90;;
52946;SDS011;68773;40.400;17.260;2023-04-24T11:32:38;9.95;;;3.38;;
52946;SDS011;68773;40.400;17.260;2023-04-24T11:35:21;8.60;;;3.42;;
52946;SDS011;68773;40.400;17.260;2023-04-24T11:37:50;6.00;;;3.50;;
52946;SDS011;68773;40.400;17.260;2023-04-24T11:40:20;6.78;;;3.63;;
52946;SDS011;68773;40.400;17.260;2023-04-24T11:42:51;13.27;;;3.47;;
52946;SDS011;68773;40.400;17.260;2023-04-24T11:45:18;8.18;;;3.15;;
52946;SDS011;68773;40.400;17.260;2023-04-24T11:47:49;13.67;;;4.27;;
52946;SDS011;68773;40.400;17.260;2023-04-24T11:50:16;7.70;;;3.60;;
52946;SDS011;68773;40.400;17.260;2023-04-24T11:52:44;10.13;;;3.80;;
52946;SDS011;68773;40.400;17.260;2023-04-24T11:57:40;9.82;;;3.85;;
52946;SDS011;68773;40.400;17.260;2023-04-24T12:00:14;10.63;;;3.95;;
52946;SDS011;68773;40.400;17.260;2023-04-24T12:02:50;9.18;;;4.20;;
52946;SDS011;68773;40.400;17.260;2023-04-24T12:05:34;13.13;;;4.43;;
52946;SDS011;68773;40.400;17.260;2023-04-24T12:08:00;10.25;;;4.47;;
52946;SDS011;68773;40.400;17.260;2023-04-24T12:10:27;8.02;;;4.63;;
52946;SDS011;68773;40.400;17.260;2023-04-24T12:12:55;9.90;;;4.15;;
52946;SDS011;68773;40.400;17.260;2023-04-24T12:15:22;9.82;;;4.53;;
52946;SDS011;68773;40.400;17.260;2023-04-24T12:17:48;10.48;;;4.40;;
52946;SDS011;68773;40.400;17.260;2023-04-24T12:20:16;7.95;;;3.33;;
52946;SDS011;68773;40.400;17.260;2023-04-24T12:25:27;5.10;;;3.65;;
52946;SDS011;68773;40.400;17.260;2023-04-24T12:30:28;5.30;;;2.95;;
52946;SDS011;68773;40.400;17.260;2023-04-24T12:32:57;5.90;;;3.17;;
52946;SDS011;68773;40.400;17.260;2023-04-24T12:35:24;8.68;;;3.75;;
52946;SDS011;68773;40.400;17.260;2023-04-24T12:37:51;9.65;;;3.63;;
52946;SDS011;68773;40.400;17.260;2023-04-24T12:40:17;5.03;;;3.22;;
52946;SDS011;68773;40.400;17.260;2023-04-24T12:42:48;8.65;;;3.03;;
52946;SDS011;68773;40.400;17.260;2023-04-24T12:45:16;3.80;;;3.00;;
52946;SDS011;68773;40.400;17.260;2023-04-24T12:47:43;8.60;;;3.10;;
52946;SDS011;68773;40.400;17.260;2023-04-24T12:50:11;9.35;;;3.10;;
52946;SDS011;68773;40.400;17.260;2023-04-24T12:52:38;7.22;;;3.20;;
52946;SDS011;68773;40.400;17.260;2023-04-24T12:55:05;5.50;;;2.70;;
52946;SDS011;68773;40.400;17.260;2023-04-24T12:57:35;6.75;;;2.53;;
52946;SDS011;68773;40.400;17.260;2023-04-24T13:00:02;4.05;;;2.60;;
52946;SDS011;68773;40.400;17.260;2023-04-24T13:02:30;6.05;;;2.88;;
52946;SDS011;68773;40.400;17.260;2023-04-24T13:04:56;7.80;;;2.53;;
52946;SDS011;68773;40.400;17.260;2023-04-24T13:07:23;7.28;;;3.17;;
52946;SDS011;68773;40.400;17.260;2023-04-24T13:09:50;6.05;;;3.10;;
52946;SDS011;68773;40.400;17.260;2023-04-24T13:12:16;8.77;;;3.15;;
52946;SDS011;68773;40.400;17.260;2023-04-24T13:14:42;5.97;;;2.97;;
52946;SDS011;68773;40.400;17.260;2023-04-24T13:17:08;4.75;;;2.85;;
52946;SDS011;68773;40.400;17.260;2023-04-24T13:19:37;7.22;;;3.15;;
52946;SDS011;68773;40.400;17.260;2023-04-24T13:22:04;6.68;;;3.15;;
52946;SDS011;68773;40.400;17.260;2023-04-24T13:24:30;7.85;;;3.10;;
52946;SDS011;68773;40.400;17.260;2023-04-24T13:26:57;9.20;;;3.10;;
52946;SDS011;68773;40.400;17.260;2023-04-24T13:29:23;8.07;;;3.40;;
52946;SDS011;68773;40.400;17.260;2023-04-24T13:31:49;6.78;;;2.95;;
52946;SDS011;68773;40.400;17.260;2023-04-24T13:34:16;6.32;;;2.92;;
52946;SDS011;68773;40.400;17.260;2023-04-24T13:36:43;7.18;;;2.88;;
52946;SDS011;68773;40.400;17.260;2023-04-24T13:39:09;8.27;;;2.22;;
52946;SDS011;68773;40.400;17.260;2023-04-24T13:41:35;7.28;;;3.10;;
52946;SDS011;68773;40.400;17.260;2023-04-24T13:44:01;5.68;;;2.72;;
52946;SDS011;68773;40.400;17.260;2023-04-24T13:46:28;6.90;;;2.42;;
52946;SDS011;68773;40.400;17.260;2023-04-24T13:48:54;7.50;;;2.72;;
52946;SDS011;68773;40.400;17.260;2023-04-24T13:51:19;6.55;;;2.30;;
52946;SDS011;68773;40.400;17.260;2023-04-24T13:53:45;7.93;;;1.90;;
52946;SDS011;68773;40.400;17.260;2023-04-24T13:56:11;5.75;;;2.25;;
52946;SDS011;68773;40.400;17.260;2023-04-24T13:58:38;4.25;;;1.88;;
52946;SDS011;68773;40.400;17.260;2023-04-24T14:01:04;9.25;;;2.17;;
52946;SDS011;68773;40.400;17.260;2023-04-24T14:03:30;10.70;;;1.92;;
52946;SDS011;68773;40.400;17.260;2023-04-24T14:05:56;3.70;;;1.60;;
52946;SDS011;68773;40.400;17.260;2023-04-24T14:08:22;9.23;;;1.88;;
52946;SDS011;68773;40.400;17.260;2023-04-24T14:10:48;6.40;;;1.75;;
52946;SDS011;68773;40.400;17.260;2023-04-24T14:13:15;3.60;;;1.85;;
52946;SDS011;68773;40.400;17.260;2023-04-24T14:15:41;8.40;;;2.03;;
52946;SDS011;68773;40.400;17.260;2023-04-24T14:18:07;7.10;;;2.13;;
52946;SDS011;68773;40.400;17.260;2023-04-24T14:20:33;6.18;;;2.05;;
52946;SDS011;68773;40.400;17.260;2023-04-24T14:22:59;3.38;;;1.80;;
52946;SDS011;68773;40.400;17.260;2023-04-24T14:25:25;6.90;;;2.00;;
52946;SDS011;68773;40.400;17.260;2023-04-24T14:27:51;6.85;;;1.77;;
52946;SDS011;68773;40.400;17.260;2023-04-24T14:30:17;5.72;;;1.70;;
52946;SDS011;68773;40.400;17.260;2023-04-24T14:32:43;8.70;;;2.58;;
52946;SDS011;68773;40.400;17.260;2023-04-24T14:35:09;7.78;;;1.90;;
52946;SDS011;68773;40.400;17.260;2023-04-24T14:37:34;6.22;;;1.63;;
52946;SDS011;68773;40.400;17.260;2023-04-24T14:40:01;10.57;;;2.28;;
52946;SDS011;68773;40.400;17.260;2023-04-24T14:42:27;4.85;;;1.80;;
52946;SDS011;68773;40.400;17.260;2023-04-24T14:44:53;6.80;;;2.38;;